createdAt,value
2018-07-22T00:00:10.564Z,91.03
2018-07-22T00:02:39.457Z,91.24
2018-07-22T00:05:06.919Z,92.76
2018-07-22T00:07:34.040Z,90.63
2018-07-22T00:10:01.132Z,92.55
2018-07-22T00:12:28.272Z,93.57
2018-07-22T00:14:55.272Z,90.03
2018-07-22T00:17:22.365Z,91.69
2018-07-22T00:19:49.427Z,91.05
2018-07-22T00:22:17.267Z,91.07
2018-07-22T00:24:44.426Z,91.59
2018-07-22T00:27:11.529Z,91.17
2018-07-22T00:29:40.596Z,91.79
2018-07-22T00:32:10.224Z,91.60
2018-07-22T00:34:40.195Z,92.01
2018-07-22T00:37:07.235Z,92.13
2018-07-22T00:39:39.692Z,92.16
2018-07-22T00:42:06.737Z,91.62
2018-07-22T00:44:33.777Z,90.79
2018-07-22T00:47:00.879Z,89.75
2018-07-22T00:49:28.971Z,89.28
2018-07-22T00:51:57.652Z,89.75
2018-07-22T00:54:24.748Z,89.94
2018-07-22T00:56:51.825Z,90.82
2018-07-22T00:59:18.869Z,87.86
2018-07-22T01:01:45.863Z,90.15
2018-07-22T01:04:12.941Z,90.31
2018-07-22T01:06:40.069Z,89.36
2018-07-22T01:09:07.887Z,88.00
2018-07-22T01:11:34.955Z,89.46
2018-07-22T01:14:06.045Z,89.75
2018-07-22T01:16:41.398Z,90.72
2018-07-22T01:19:11.822Z,90.64
2018-07-22T01:21:42.941Z,90.62
2018-07-22T01:24:10.026Z,89.76
2018-07-22T01:26:37.132Z,90.66
2018-07-22T01:29:04.109Z,91.23
2018-07-22T01:31:31.336Z,90.82
2018-07-22T01:33:58.404Z,88.37
2018-07-22T01:36:30.175Z,87.38
2018-07-22T01:38:57.256Z,86.90
2018-07-22T01:41:24.256Z,90.04
2018-07-22T01:43:54.306Z,90.79
2018-07-22T01:46:24.512Z,90.46
2018-07-22T01:48:51.594Z,91.25
2018-07-22T01:51:22.706Z,90.61
2018-07-22T01:53:50.805Z,91.40
2018-07-22T01:56:17.839Z,91.63
2018-07-22T01:58:46.848Z,91.63
2018-07-22T02:01:20.764Z,92.36
2018-07-22T02:03:47.860Z,91.87
2018-07-22T02:06:15.749Z,92.12
2018-07-22T02:08:42.799Z,91.97
2018-07-22T02:11:10.784Z,90.18
2018-07-22T02:13:38.731Z,88.72
2018-07-22T02:16:12.944Z,91.04
2018-07-22T02:18:43.984Z,88.39
2018-07-22T02:22:33.812Z,90.97
2018-07-22T02:25:01.904Z,91.98
2018-07-22T02:27:35.276Z,88.92
2018-07-22T02:30:02.324Z,91.42
2018-07-22T02:32:30.373Z,91.59
2018-07-22T02:34:58.392Z,89.82
2018-07-22T02:37:26.791Z,89.59
2018-07-22T02:39:58.703Z,89.77
2018-07-22T02:42:26.827Z,91.33
2018-07-22T02:44:53.946Z,91.19
2018-07-22T02:47:20.944Z,91.34
2018-07-22T02:49:48.041Z,89.64
2018-07-22T02:52:16.092Z,88.57
2018-07-22T02:54:45.928Z,88.21
2018-07-22T02:57:13.767Z,89.55
2018-07-22T02:59:41.876Z,90.99
2018-07-22T03:02:20.534Z,91.10
2018-07-22T03:04:53.036Z,92.16
2018-07-22T03:07:26.416Z,89.53
2018-07-22T03:09:53.675Z,90.94
2018-07-22T03:12:20.786Z,88.87
2018-07-22T03:14:47.875Z,89.62
2018-07-22T03:17:14.916Z,91.21
2018-07-22T03:19:42.000Z,88.25
2018-07-22T03:22:09.077Z,90.45
2018-07-22T03:24:37.099Z,91.60
2018-07-22T03:27:04.389Z,92.56
2018-07-22T03:29:31.400Z,92.33
2018-07-22T03:31:58.564Z,91.68
2018-07-22T03:34:25.676Z,92.81
2018-07-22T03:36:52.828Z,89.84
2018-07-22T03:39:28.028Z,91.85
2018-07-22T03:41:58.857Z,88.52
2018-07-22T03:44:25.982Z,87.51
2018-07-22T03:46:53.863Z,86.36
2018-07-22T03:49:23.968Z,86.85
2018-07-22T03:51:51.064Z,88.91
2018-07-22T03:54:18.920Z,86.86
2018-07-22T03:56:46.951Z,86.63
2018-07-22T03:59:14.013Z,87.94
2018-07-22T04:01:44.880Z,87.19
2018-07-22T04:04:11.932Z,89.17
2018-07-22T04:06:39.024Z,87.04
2018-07-22T04:09:06.892Z,86.18
2018-07-22T04:11:33.983Z,87.26
2018-07-22T04:14:01.170Z,85.57
2018-07-22T04:16:29.885Z,88.19
2018-07-22T04:19:03.148Z,89.22
2018-07-22T04:21:30.882Z,88.31
2018-07-22T04:24:04.127Z,85.86
2018-07-22T04:26:31.788Z,87.59
2018-07-22T04:29:06.561Z,85.77
2018-07-22T04:31:35.256Z,87.32
2018-07-22T04:34:02.367Z,88.19
2018-07-22T04:36:29.431Z,88.02
2018-07-22T04:38:56.556Z,88.74
2018-07-22T04:41:23.649Z,88.12
2018-07-22T04:43:50.849Z,86.60
2018-07-22T04:46:18.007Z,85.95
2018-07-22T04:48:46.309Z,88.33
2018-07-22T04:51:13.423Z,87.71
2018-07-22T04:53:40.528Z,87.71
2018-07-22T04:56:07.520Z,86.74
2018-07-22T04:58:36.345Z,87.44
2018-07-22T05:01:03.403Z,88.81
2018-07-22T05:03:30.392Z,89.06
2018-07-22T05:05:57.476Z,89.66
2018-07-22T05:08:27.344Z,89.27
2018-07-22T05:10:54.401Z,86.78
2018-07-22T05:13:21.461Z,88.17
2018-07-22T05:15:48.537Z,87.94
2018-07-22T05:18:20.307Z,87.25
2018-07-22T05:20:47.379Z,85.67
2018-07-22T05:23:16.504Z,85.33
2018-07-22T05:25:43.528Z,86.32
2018-07-22T05:28:13.950Z,83.99
2018-07-22T05:30:49.288Z,83.93
2018-07-22T05:33:17.896Z,84.27
2018-07-22T05:35:45.952Z,83.58
2018-07-22T05:38:14.910Z,84.48
2018-07-22T05:40:43.011Z,82.58
2018-07-22T05:43:10.233Z,81.26
2018-07-22T05:45:37.856Z,81.43
2018-07-22T05:48:05.341Z,80.70
2018-07-22T05:50:33.495Z,81.94
2018-07-22T05:53:02.425Z,81.88
2018-07-22T05:55:34.970Z,82.53
2018-07-22T05:58:05.108Z,81.09
2018-07-22T06:00:32.259Z,80.28
2018-07-22T06:02:59.356Z,78.10
2018-07-22T06:05:26.569Z,78.72
2018-07-22T06:07:54.698Z,76.44
2018-07-22T06:10:24.932Z,79.10
2018-07-22T06:12:52.939Z,79.72
2018-07-22T06:15:26.187Z,78.16
2018-07-22T06:17:53.322Z,77.96
2018-07-22T06:20:24.940Z,75.47
2018-07-22T06:22:52.915Z,74.63
2018-07-22T06:25:24.643Z,73.06
2018-07-22T06:27:51.716Z,71.26
2018-07-22T06:30:24.816Z,74.26
2018-07-22T06:33:02.165Z,74.24
2018-07-22T06:35:32.240Z,75.88
2018-07-22T06:38:01.029Z,71.73
2018-07-22T06:40:28.128Z,72.68
2018-07-22T06:42:55.933Z,74.41
2018-07-22T06:45:23.036Z,74.36
2018-07-22T06:47:53.630Z,74.90
2018-07-22T06:50:21.068Z,73.08
2018-07-22T06:52:48.975Z,71.42
2018-07-22T06:55:18.088Z,68.40
2018-07-22T06:57:45.165Z,70.37
2018-07-22T07:00:13.995Z,67.87
2018-07-22T07:02:41.073Z,67.82
2018-07-22T07:05:08.274Z,68.07
2018-07-22T07:07:35.268Z,66.95
2018-07-22T07:10:02.445Z,65.64
2018-07-22T07:12:29.491Z,63.22
2018-07-22T07:15:00.428Z,63.54
2018-07-22T07:17:27.532Z,62.89
2018-07-22T07:19:54.675Z,60.59
2018-07-22T07:22:21.780Z,60.84
2018-07-22T07:24:51.084Z,62.69
2018-07-22T07:27:24.519Z,62.85
2018-07-22T07:29:51.561Z,64.56
2018-07-22T07:32:18.658Z,63.15
2018-07-22T07:34:45.712Z,63.56
2018-07-22T07:37:12.707Z,60.30
2018-07-22T07:39:40.792Z,60.45
2018-07-22T07:42:07.816Z,57.92
2018-07-22T07:44:34.923Z,60.13
2018-07-22T07:47:01.983Z,60.75
2018-07-22T07:49:29.085Z,60.57
2018-07-22T07:52:00.269Z,62.55
2018-07-22T07:54:27.447Z,59.55
2018-07-22T07:56:54.669Z,59.46
2018-07-22T07:59:21.881Z,57.42
2018-07-22T08:01:49.094Z,57.46
2018-07-22T08:04:16.244Z,56.47
2018-07-22T08:06:47.048Z,60.57
2018-07-22T08:09:14.370Z,56.03
2018-07-22T08:11:41.995Z,56.67
2018-07-22T08:14:09.013Z,59.51
2018-07-22T08:16:36.526Z,58.11
2018-07-22T08:19:03.930Z,58.17
2018-07-22T08:21:31.071Z,62.38
2018-07-22T08:24:00.089Z,59.63
2018-07-22T08:26:27.088Z,59.94
2018-07-22T08:29:17.503Z,62.73
2018-07-22T08:31:45.507Z,58.43
2018-07-22T08:34:16.353Z,57.11
2018-07-22T08:36:43.480Z,59.87
2018-07-22T08:39:15.243Z,58.76
2018-07-22T08:41:43.331Z,58.54
2018-07-22T08:44:10.974Z,60.27
2018-07-22T08:46:39.406Z,61.22
2018-07-22T08:49:06.573Z,60.27
2018-07-22T08:51:33.627Z,60.28
2018-07-22T08:54:01.245Z,60.08
2018-07-22T08:56:29.412Z,57.29
2018-07-22T08:58:56.700Z,56.78
2018-07-22T09:01:24.496Z,54.45
2018-07-22T09:03:59.478Z,52.02
2018-07-22T09:06:32.924Z,52.26
2018-07-22T09:08:59.969Z,48.04
2018-07-22T09:11:28.004Z,48.11
2018-07-22T09:13:55.669Z,48.38
2018-07-22T09:16:22.746Z,48.65
2018-07-22T09:18:49.752Z,49.36
2018-07-22T09:21:19.919Z,48.01
2018-07-22T09:23:47.616Z,51.56
2018-07-22T09:26:14.705Z,51.20
2018-07-22T09:28:43.864Z,49.64
2018-07-22T09:31:13.556Z,47.08
2018-07-22T09:33:42.597Z,45.57
2018-07-22T09:36:16.984Z,46.78
2018-07-22T09:38:43.882Z,49.32
2018-07-22T09:41:10.940Z,53.28
2018-07-22T09:43:41.881Z,49.87
2018-07-22T09:46:10.620Z,51.22
2018-07-22T09:48:37.716Z,53.91
2018-07-22T09:51:05.612Z,50.44
2018-07-22T09:53:32.700Z,51.61
2018-07-22T09:55:59.813Z,49.92
2018-07-22T09:58:28.923Z,46.03
2018-07-22T10:01:01.170Z,45.21
2018-07-22T10:03:29.059Z,45.50
2018-07-22T10:05:58.096Z,47.82
2018-07-22T10:08:25.320Z,50.92
2018-07-22T10:10:52.439Z,52.23
2018-07-22T10:13:19.436Z,50.32
2018-07-22T10:15:47.200Z,50.60
2018-07-22T10:18:14.396Z,50.80
2018-07-22T10:20:41.449Z,51.49
2018-07-22T10:23:08.746Z,52.64
2018-07-22T10:25:35.782Z,54.65
2018-07-22T10:28:10.076Z,52.16
2018-07-22T10:30:37.075Z,51.05
2018-07-22T10:33:05.276Z,50.40
2018-07-22T10:35:32.336Z,48.26
2018-07-22T10:37:59.432Z,50.57
2018-07-22T10:40:28.140Z,52.19
2018-07-22T10:42:55.250Z,55.88
2018-07-22T10:45:22.332Z,54.14
2018-07-22T10:47:52.527Z,53.50
2018-07-22T10:50:19.622Z,50.80
2018-07-22T10:52:46.676Z,49.59
2018-07-22T10:55:13.770Z,47.52
2018-07-22T10:57:41.568Z,46.10
2018-07-22T11:00:08.612Z,46.39
2018-07-22T11:02:38.995Z,46.05
2018-07-22T11:05:07.294Z,45.11
2018-07-22T11:07:34.579Z,45.47
2018-07-22T11:10:05.173Z,47.02
2018-07-22T11:12:32.309Z,48.70
2018-07-22T11:15:00.417Z,47.86
2018-07-22T11:17:31.628Z,48.27
2018-07-22T11:19:58.659Z,45.10
2018-07-22T11:22:28.926Z,48.18
2018-07-22T11:24:56.163Z,48.31
2018-07-22T11:27:24.192Z,46.80
2018-07-22T11:29:54.188Z,46.70
2018-07-22T11:32:23.308Z,46.99
2018-07-22T11:34:53.367Z,43.49
2018-07-22T11:37:20.492Z,44.88
2018-07-22T11:39:47.612Z,42.42
2018-07-22T11:42:14.679Z,41.24
2018-07-22T11:44:41.738Z,43.56
2018-07-22T11:47:08.848Z,45.27
2018-07-22T11:49:36.008Z,47.02
2018-07-22T11:52:06.696Z,45.87
2018-07-22T11:54:33.748Z,50.41
2018-07-22T11:57:00.800Z,48.44
2018-07-22T11:59:37.635Z,49.12
2018-07-22T12:02:14.760Z,48.81
2018-07-22T12:04:45.156Z,47.14
2018-07-22T12:07:13.240Z,50.98
2018-07-22T12:09:41.392Z,47.49
2018-07-22T12:12:08.738Z,48.53
2018-07-22T12:14:35.741Z,45.79
2018-07-22T12:17:02.784Z,45.16
2018-07-22T12:19:29.846Z,43.85
2018-07-22T12:21:56.927Z,44.99
2018-07-22T12:24:30.376Z,45.32
2018-07-22T12:26:57.492Z,45.75
2018-07-22T12:29:27.584Z,44.58
2018-07-22T12:31:54.703Z,43.98
2018-07-22T12:34:21.736Z,44.60
2018-07-22T12:36:49.726Z,43.41
2018-07-22T12:39:17.820Z,42.28
2018-07-22T12:41:49.544Z,42.58
2018-07-22T12:44:17.102Z,42.79
2018-07-22T12:46:44.187Z,43.00
2018-07-22T12:49:15.116Z,44.61
2018-07-22T12:51:44.260Z,46.01
2018-07-22T12:54:11.318Z,46.03
2018-07-22T12:56:42.088Z,44.32
2018-07-22T12:59:10.146Z,43.17
2018-07-22T13:01:37.977Z,45.42
2018-07-22T13:04:05.323Z,45.86
2018-07-22T13:06:32.417Z,43.86
2018-07-22T13:09:02.488Z,43.33
2018-07-22T13:11:31.561Z,44.27
2018-07-22T13:14:00.220Z,43.95
2018-07-22T13:16:28.328Z,42.41
2018-07-22T13:18:58.419Z,44.08
2018-07-22T13:21:26.468Z,45.49
2018-07-22T13:23:56.526Z,47.15
2018-07-22T13:26:23.764Z,45.12
2018-07-22T13:28:50.829Z,46.18
2018-07-22T13:31:17.972Z,44.12
2018-07-22T13:33:45.085Z,44.46
2018-07-22T13:36:12.119Z,44.27
2018-07-22T13:38:42.187Z,44.37
2018-07-22T13:41:10.306Z,43.38
2018-07-22T13:43:37.340Z,44.75
2018-07-22T13:46:04.448Z,46.17
2018-07-22T13:48:31.500Z,46.15
2018-07-22T13:50:58.670Z,47.89
2018-07-22T13:53:25.732Z,46.91
2018-07-22T13:55:53.836Z,49.20
2018-07-22T13:58:24.033Z,46.24
2018-07-22T14:00:51.628Z,45.88
2018-07-22T14:03:19.757Z,46.24
2018-07-22T14:05:46.917Z,48.70
2018-07-22T14:08:17.404Z,48.81
2018-07-22T14:10:46.959Z,47.61
2018-07-22T14:13:14.153Z,48.95
2018-07-22T14:15:41.411Z,48.82
2018-07-22T14:18:10.292Z,48.75
2018-07-22T14:20:44.693Z,49.15
2018-07-22T14:23:11.726Z,49.88
2018-07-22T14:25:38.900Z,50.99
2018-07-22T14:28:14.050Z,50.79
2018-07-22T14:33:16.800Z,50.07
2018-07-22T14:35:44.745Z,46.43
2018-07-22T14:38:12.700Z,45.24
2018-07-22T14:40:39.800Z,44.88
2018-07-22T14:43:07.132Z,43.41
2018-07-22T14:45:34.240Z,42.32
2018-07-22T14:48:06.860Z,43.42
2018-07-22T14:50:34.672Z,45.19
2018-07-22T14:53:01.782Z,42.83
2018-07-22T14:55:28.857Z,43.07
2018-07-22T14:57:55.919Z,40.25
2018-07-22T15:02:58.684Z,42.54
2018-07-22T15:05:26.911Z,39.16
2018-07-22T15:07:54.756Z,38.60
2018-07-22T15:10:21.839Z,38.51
2018-07-22T15:12:49.068Z,39.36
2018-07-22T15:15:17.744Z,39.02
2018-07-22T15:17:44.792Z,38.53
2018-07-22T15:20:14.851Z,41.68
2018-07-22T15:22:42.034Z,41.01
2018-07-22T15:25:09.119Z,40.13
2018-07-22T15:27:36.784Z,36.75
2018-07-22T15:30:04.372Z,38.58
2018-07-22T15:32:31.451Z,37.95
2018-07-22T15:35:00.560Z,39.42
2018-07-22T15:37:30.772Z,39.73
2018-07-22T15:40:00.879Z,41.22
2018-07-22T15:42:27.964Z,41.76
2018-07-22T15:44:55.661Z,54.14
2018-07-22T15:47:22.744Z,59.46
2018-07-22T15:49:50.180Z,59.54
2018-07-22T15:52:17.416Z,60.01
2018-07-22T15:54:48.443Z,59.29
2018-07-22T15:57:21.159Z,58.70
2018-07-22T15:59:48.316Z,60.35
2018-07-22T16:02:16.391Z,58.88
2018-07-22T16:04:43.474Z,57.21
2018-07-22T16:07:13.660Z,56.41
2018-07-22T16:09:41.092Z,54.57
2018-07-22T16:12:08.190Z,53.91
2018-07-22T16:14:36.281Z,53.07
2018-07-22T16:17:06.414Z,50.82
2018-07-22T16:19:33.543Z,50.04
2018-07-22T16:22:00.677Z,51.17
2018-07-22T16:24:28.833Z,48.55
2018-07-22T16:26:56.028Z,48.84
2018-07-22T16:29:32.688Z,49.98
2018-07-22T16:32:03.830Z,47.41
2018-07-22T16:34:30.895Z,47.26
2018-07-22T16:36:57.928Z,46.64
2018-07-22T16:39:25.040Z,45.84
2018-07-22T16:41:58.777Z,42.97
2018-07-22T16:44:25.863Z,43.78
2018-07-22T16:46:52.981Z,45.80
2018-07-22T16:49:20.180Z,44.71
2018-07-22T16:51:47.323Z,44.24
2018-07-22T16:54:15.400Z,43.75
2018-07-22T16:56:42.648Z,42.20
2018-07-22T16:59:12.971Z,39.79
2018-07-22T17:01:40.080Z,38.71
2018-07-22T17:04:07.104Z,42.06
2018-07-22T17:06:37.220Z,42.81
2018-07-22T17:09:07.572Z,42.74
2018-07-22T17:11:34.727Z,42.16
2018-07-22T17:14:01.846Z,41.80
2018-07-22T17:16:32.795Z,42.23
2018-07-22T17:19:04.425Z,42.70
2018-07-22T17:21:37.749Z,42.78
2018-07-22T17:24:05.340Z,42.29
2018-07-22T17:26:38.664Z,39.76
2018-07-22T17:29:09.436Z,43.04
2018-07-22T17:31:39.644Z,45.24
2018-07-22T17:34:08.295Z,46.97
2018-07-22T17:36:39.004Z,49.46
2018-07-22T17:39:07.964Z,51.04
2018-07-22T17:41:37.595Z,52.62
2018-07-22T17:44:45.937Z,53.48
2018-07-22T17:47:12.974Z,54.90
2018-07-22T17:49:40.083Z,55.61
2018-07-22T17:52:21.332Z,56.08
2018-07-22T17:54:49.295Z,56.54
2018-07-22T17:57:17.534Z,56.66
2018-07-22T17:59:45.064Z,56.48
2018-07-22T18:02:13.966Z,57.04
2018-07-22T18:04:41.919Z,57.39
2018-07-22T18:07:08.984Z,58.00
2018-07-22T18:09:36.156Z,57.09
2018-07-22T18:12:14.131Z,57.76
2018-07-22T18:14:41.147Z,59.87
2018-07-22T18:17:08.296Z,59.38
2018-07-22T18:19:37.403Z,59.94
2018-07-22T18:22:05.533Z,60.08
2018-07-22T18:24:32.684Z,61.03
2018-07-22T18:27:00.333Z,60.30
2018-07-22T18:29:27.499Z,61.21
2018-07-22T18:31:55.620Z,63.16
2018-07-22T18:34:26.680Z,62.93
2018-07-22T18:36:55.375Z,62.64
2018-07-22T18:39:24.330Z,63.68
2018-07-22T18:41:53.228Z,63.15
2018-07-22T18:44:28.269Z,63.49
2018-07-22T18:46:55.431Z,63.89
2018-07-22T18:49:24.255Z,63.96
2018-07-22T18:51:54.568Z,64.40
2018-07-22T18:54:21.771Z,64.25
2018-07-22T18:56:50.432Z,64.95
2018-07-22T18:59:19.621Z,65.17
2018-07-22T19:01:49.971Z,65.59
2018-07-22T19:04:20.172Z,67.17
2018-07-22T19:06:47.398Z,68.47
2018-07-22T19:09:30.509Z,68.40
2018-07-22T19:11:57.674Z,68.66
2018-07-22T19:14:25.456Z,68.78
2018-07-22T19:16:56.506Z,68.18
2018-07-22T19:19:23.868Z,68.89
2018-07-22T19:21:50.988Z,68.77
2018-07-22T19:24:18.150Z,68.30
2018-07-22T19:26:48.336Z,69.22
2018-07-22T19:29:16.515Z,69.37
2018-07-22T19:31:43.588Z,70.19
2018-07-22T19:34:20.266Z,69.46
2018-07-22T19:36:51.353Z,70.43
2018-07-22T19:39:21.574Z,71.02
2018-07-22T19:41:48.719Z,72.50
2018-07-22T19:44:15.776Z,72.33
2018-07-22T19:46:43.583Z,72.18
2018-07-22T19:49:11.630Z,71.00
2018-07-22T19:51:39.519Z,71.20
2018-07-22T19:54:07.408Z,70.78
2018-07-22T19:56:37.957Z,70.17
2018-07-22T19:59:13.519Z,71.09
2018-07-22T20:01:42.321Z,69.78
2018-07-22T20:04:11.244Z,69.76
2018-07-22T20:06:42.608Z,70.72
2018-07-22T20:09:11.896Z,71.51
2018-07-22T20:11:40.820Z,71.81
2018-07-22T20:14:07.958Z,72.32
2018-07-22T20:16:37.141Z,72.98
2018-07-22T20:19:05.037Z,74.08
2018-07-22T20:21:32.529Z,71.89
2018-07-22T20:24:00.695Z,71.90
2018-07-22T20:26:28.619Z,72.52
2018-07-22T20:28:56.527Z,73.28
2018-07-22T20:31:25.571Z,72.13
2018-07-22T20:33:52.700Z,71.92
2018-07-22T20:36:19.880Z,71.79
2018-07-22T20:38:47.952Z,72.39
2018-07-22T20:41:17.062Z,72.00
2018-07-22T20:43:46.060Z,73.77
2018-07-22T20:46:13.216Z,73.77
2018-07-22T20:48:42.088Z,74.23
2018-07-22T20:51:18.367Z,74.87
2018-07-22T20:53:46.087Z,72.53
2018-07-22T20:56:14.070Z,75.27
2018-07-22T20:58:47.011Z,76.60
2018-07-22T21:01:15.036Z,76.89
2018-07-22T21:03:42.201Z,77.75
2018-07-22T21:06:10.084Z,78.49
2018-07-22T21:08:38.063Z,79.06
2018-07-22T21:11:09.615Z,81.48
2018-07-22T21:13:41.524Z,81.12
2018-07-22T21:16:09.571Z,82.99
2018-07-22T21:18:39.813Z,82.68
2018-07-22T21:21:09.864Z,80.70
2018-07-22T21:23:37.512Z,80.76
2018-07-22T21:26:05.617Z,82.80
2018-07-22T21:28:32.774Z,83.24
2018-07-22T21:31:05.971Z,82.46
2018-07-22T21:33:42.848Z,79.06
2018-07-22T21:36:15.984Z,79.10
2018-07-22T21:38:46.102Z,77.93
2018-07-22T21:41:19.532Z,80.13
2018-07-22T21:43:54.764Z,82.48
2018-07-22T21:46:28.096Z,81.36
2018-07-22T21:48:58.204Z,79.97
2018-07-22T21:51:28.373Z,79.46
2018-07-22T21:53:58.580Z,79.05
2018-07-22T21:56:25.742Z,79.29
2018-07-22T21:58:58.882Z,79.95
2018-07-22T22:01:28.967Z,78.71
2018-07-22T22:03:57.064Z,77.30
2018-07-22T22:06:28.756Z,78.17
2018-07-22T22:08:55.871Z,76.14
2018-07-22T22:11:23.168Z,77.06
2018-07-22T22:13:50.260Z,76.18
2018-07-22T22:16:21.152Z,76.58
2018-07-22T22:18:51.287Z,78.84
2018-07-22T22:21:20.130Z,80.84
2018-07-22T22:23:48.093Z,81.24
2018-07-22T22:26:24.763Z,82.47
2018-07-22T22:28:59.148Z,83.22
2018-07-22T22:31:29.337Z,82.85
2018-07-22T22:34:02.685Z,80.90
2018-07-22T22:36:36.000Z,79.86
2018-07-22T22:39:07.254Z,79.40
2018-07-22T22:41:35.113Z,78.91
2018-07-22T22:44:03.079Z,80.08
2018-07-22T22:49:27.503Z,83.09
2018-07-22T22:51:54.724Z,80.25
2018-07-22T22:54:21.788Z,80.16
2018-07-22T22:56:49.949Z,80.53
2018-07-22T22:59:22.105Z,79.69
2018-07-22T23:01:49.488Z,81.51
2018-07-22T23:04:16.825Z,80.16
2018-07-22T23:06:44.089Z,83.92
2018-07-22T23:09:12.456Z,84.54
2018-07-22T23:11:40.184Z,84.55
2018-07-22T23:14:07.932Z,84.83
2018-07-22T23:16:34.980Z,84.78
2018-07-22T23:19:02.501Z,82.88
2018-07-22T23:21:30.859Z,79.91
2018-07-22T23:23:57.956Z,81.51
2018-07-22T23:26:25.068Z,79.77
2018-07-22T23:28:53.259Z,77.79
2018-07-22T23:31:24.325Z,78.34
2018-07-22T23:33:55.391Z,78.38
2018-07-22T23:36:22.464Z,79.51
2018-07-22T23:38:49.519Z,79.94
2018-07-22T23:41:25.214Z,80.79
2018-07-22T23:43:53.039Z,78.84
2018-07-22T23:46:21.036Z,81.85
2018-07-22T23:48:48.106Z,82.52
2018-07-22T23:51:17.177Z,82.98
2018-07-22T23:53:44.209Z,83.52
2018-07-22T23:56:15.695Z,83.65
2018-07-22T23:58:47.775Z,80.63
